Time;durP1;ratioP1;P1;durP2;ratioP2;P2;SDS_P1;SDS_P2;PMS_P1;PMS_P2;Temp;Humidity;BMP_temperature;BMP_pressure;BME280_temperature;BME280_humidity;BME280_pressure;Samples;Min_cycle;Max_cycle;Signal;HPM_P1;HPM_P2
2021/06/25 00:01:19;;;;;;;5.07;4.70;;;16.30;99.90;;;;;;5012444;28;20588;-65
2021/06/25 00:03:44;;;;;;;4.33;4.03;;;16.30;99.90;;;;;;5012389;28;20175;-65
2021/06/25 00:06:10;;;;;;;5.37;4.87;;;16.30;99.90;;;;;;5012219;28;20190;-65
2021/06/25 00:08:35;;;;;;;5.97;5.40;;;16.20;99.90;;;;;;5012000;28;20198;-65
2021/06/25 00:11:01;;;;;;;7.73;4.90;;;16.20;99.90;;;;;;5012240;28;20171;-65
2021/06/25 00:13:27;;;;;;;5.77;4.20;;;16.20;99.90;;;;;;5012289;28;20179;-64
2021/06/25 00:15:53;;;;;;;4.47;4.10;;;16.20;99.90;;;;;;5012190;28;20632;-65
2021/06/25 00:18:19;;;;;;;4.33;3.80;;;16.10;99.90;;;;;;5012001;28;20450;-63
2021/06/25 00:20:44;;;;;;;4.60;4.30;;;16.10;99.90;;;;;;5012019;28;20765;-65
2021/06/25 00:23:10;;;;;;;4.30;4.00;;;16.00;99.90;;;;;;5012182;28;20549;-65
2021/06/25 00:25:35;;;;;;;4.27;3.97;;;16.00;99.90;;;;;;5012101;28;20312;-64
2021/06/25 00:28:01;;;;;;;3.30;3.10;;;16.00;99.90;;;;;;5005240;28;20199;-64
2021/06/25 00:30:27;;;;;;;7.27;3.83;;;16.00;99.90;;;;;;4992341;28;20176;-64
2021/06/25 00:32:52;;;;;;;4.10;3.80;;;15.90;99.90;;;;;;4993001;28;20199;-63
2021/06/25 00:35:18;;;;;;;3.73;3.43;;;15.90;99.90;;;;;;4992401;28;20175;-65
2021/06/25 00:37:43;;;;;;;3.67;3.37;;;15.90;99.90;;;;;;4992607;28;20688;-65
2021/06/25 00:40:11;;;;;;;3.73;3.53;;;15.90;99.90;;;;;;4992391;28;20178;-65
2021/06/25 00:42:37;;;;;;;3.13;2.87;;;15.90;99.90;;;;;;4992329;28;20593;-65
2021/06/25 00:45:17;;;;;;;3.97;3.57;;;15.90;99.90;;;;;;4992454;28;20451;-65
2021/06/25 00:47:44;;;;;;;3.03;2.83;;;15.90;99.90;;;;;;4991898;28;20219;-65
2021/06/25 00:50:11;;;;;;;3.47;3.17;;;15.90;99.90;;;;;;4990771;28;20501;-64
2021/06/25 00:52:37;;;;;;;3.10;2.90;;;15.90;99.90;;;;;;4993450;28;20785;-64
2021/06/25 00:55:04;;;;;;;3.33;2.70;;;16.00;99.90;;;;;;4996180;28;20419;-64
2021/06/25 00:57:30;;;;;;;2.90;2.70;;;16.00;99.90;;;;;;4995922;28;20196;-65
2021/06/25 00:59:55;;;;;;;2.90;2.57;;;16.00;99.90;;;;;;4995836;28;20792;-65
2021/06/25 01:02:21;;;;;;;2.80;2.53;;;16.00;99.90;;;;;;4996226;28;20521;-65
2021/06/25 01:04:50;;;;;;;2.90;2.70;;;16.00;99.90;;;;;;4996214;28;20180;-65
2021/06/25 01:07:16;;;;;;;2.90;2.70;;;16.10;99.90;;;;;;4995786;28;20676;-66
2021/06/25 01:09:43;;;;;;;2.50;2.30;;;16.10;99.90;;;;;;4995674;28;20427;-65
2021/06/25 01:12:10;;;;;;;3.00;2.63;;;16.10;99.90;;;;;;4996084;28;20660;-65
2021/06/25 01:14:38;;;;;;;2.67;2.47;;;16.10;99.90;;;;;;4995686;28;20446;-63
2021/06/25 01:17:06;;;;;;;4.50;2.67;;;16.10;99.90;;;;;;4995708;28;20445;-64
2021/06/25 01:19:32;;;;;;;3.23;2.50;;;16.20;99.90;;;;;;4995445;28;20422;-65
2021/06/25 01:21:58;;;;;;;2.30;2.20;;;16.20;99.90;;;;;;4995686;28;20912;-65
2021/06/25 01:24:24;;;;;;;4.27;2.17;;;16.10;99.90;;;;;;5006091;28;20484;-65
2021/06/25 01:26:49;;;;;;;2.57;2.37;;;16.10;99.90;;;;;;5014898;28;20301;-64
2021/06/25 01:29:15;;;;;;;2.83;2.60;;;16.00;99.90;;;;;;4998085;28;20235;-65
2021/06/25 01:31:40;;;;;;;2.50;2.30;;;16.00;99.90;;;;;;4995474;28;20179;-65
2021/06/25 01:34:07;;;;;;;3.80;2.03;;;16.00;99.90;;;;;;4995527;28;20715;-64
2021/06/25 01:36:34;;;;;;;2.00;1.90;;;16.00;99.90;;;;;;4995303;28;20191;-65
2021/06/25 01:39:02;;;;;;;3.83;2.57;;;16.00;99.90;;;;;;4995114;28;20971;-65
2021/06/25 01:41:27;;;;;;;2.60;2.17;;;16.00;99.90;;;;;;4995238;28;20422;-65
2021/06/25 01:43:54;;;;;;;2.00;1.80;;;16.00;99.90;;;;;;4995099;28;20484;-64
2021/06/25 01:46:22;;;;;;;1.83;1.73;;;16.00;99.90;;;;;;4995071;28;20258;-65
2021/06/25 01:48:48;;;;;;;2.30;2.10;;;16.00;99.90;;;;;;4994834;28;20959;-65
2021/06/25 01:51:13;;;;;;;2.37;2.20;;;16.00;99.90;;;;;;4995136;28;20434;-64
2021/06/25 01:53:39;;;;;;;2.00;1.90;;;16.00;99.90;;;;;;4995263;28;20171;-65
2021/06/25 01:56:04;;;;;;;1.90;1.80;;;16.00;99.90;;;;;;4994958;28;20200;-64
2021/06/25 01:58:31;;;;;;;3.43;1.73;;;16.00;99.90;;;;;;4994576;28;20637;-64
2021/06/25 02:01:10;;;;;;;3.97;1.80;;;16.00;99.90;;;;;;4994914;28;20641;-64
2021/06/25 02:03:36;;;;;;;2.53;2.30;;;16.00;99.90;;;;;;5009381;28;20447;-65
2021/06/25 02:06:02;;;;;;;2.50;1.80;;;16.00;99.90;;;;;;4994448;28;20458;-65
2021/06/25 02:08:28;;;;;;;2.13;1.63;;;16.10;99.90;;;;;;4994487;28;20565;-65
2021/06/25 02:10:54;;;;;;;2.87;2.67;;;16.10;99.90;;;;;;4994640;28;20414;-65
2021/06/25 02:13:19;;;;;;;2.67;2.20;;;16.10;99.90;;;;;;4994747;28;20176;-65
2021/06/25 02:15:45;;;;;;;2.37;2.17;;;16.10;99.90;;;;;;5009770;28;20180;-65
2021/06/25 02:18:10;;;;;;;2.87;2.67;;;16.10;99.90;;;;;;4994623;28;20188;-65
2021/06/25 02:20:35;;;;;;;2.93;2.73;;;16.10;99.90;;;;;;4994475;28;20186;-63
2021/06/25 02:23:01;;;;;;;2.53;2.33;;;16.10;99.90;;;;;;4994496;28;20184;-65
2021/06/25 02:25:27;;;;;;;3.33;2.20;;;16.20;99.90;;;;;;4994367;28;20249;-65
2021/06/25 02:27:52;;;;;;;2.80;2.60;;;16.20;99.90;;;;;;4994162;28;20203;-64
2021/06/25 02:30:18;;;;;;;4.13;2.40;;;16.30;99.90;;;;;;4994115;28;20171;-65
2021/06/25 02:32:45;;;;;;;2.50;2.30;;;16.30;99.90;;;;;;4994338;28;20221;-66
2021/06/25 02:35:12;;;;;;;2.67;2.47;;;16.40;99.90;;;;;;4994327;28;20848;-65
2021/06/25 02:37:38;;;;;;;4.40;2.37;;;16.50;99.90;;;;;;4994450;28;20952;-65
2021/06/25 02:40:05;;;;;;;2.73;2.53;;;16.50;99.90;;;;;;4993783;28;20427;-64
2021/06/25 02:42:31;;;;;;;3.43;3.00;;;16.50;99.90;;;;;;4994097;28;20430;-65
2021/06/25 02:44:56;;;;;;;3.60;3.30;;;16.40;99.90;;;;;;4994130;28;20815;-65
2021/06/25 02:47:22;;;;;;;3.00;2.20;;;16.40;99.90;;;;;;4993784;28;20757;-64
2021/06/25 02:49:48;;;;;;;3.03;2.83;;;16.40;99.90;;;;;;4993718;28;20233;-65
2021/06/25 02:52:13;;;;;;;2.70;2.50;;;16.50;99.90;;;;;;4993949;28;20259;-65
2021/06/25 02:54:39;;;;;;;3.37;2.93;;;16.40;99.90;;;;;;4993854;28;20233;-64
2021/06/25 02:57:05;;;;;;;3.40;3.20;;;16.40;99.90;;;;;;4993730;28;20290;-64
2021/06/25 02:59:31;;;;;;;3.37;3.10;;;16.40;99.90;;;;;;4993561;28;20263;-63
2021/06/25 03:01:56;;;;;;;3.77;3.47;;;16.30;99.90;;;;;;4993901;28;20530;-65
2021/06/25 03:04:22;;;;;;;4.20;3.43;;;16.20;99.90;;;;;;4993872;28;20184;-64
2021/06/25 03:06:47;;;;;;;4.87;3.50;;;16.10;99.90;;;;;;4993688;28;20258;-63
2021/06/25 03:09:13;;;;;;;4.27;3.97;;;16.10;99.90;;;;;;4993175;28;20249;-65
2021/06/25 03:11:38;;;;;;;3.00;2.80;;;16.10;99.90;;;;;;4993864;28;20207;-64
2021/06/25 03:14:04;;;;;;;4.97;3.40;;;16.00;99.90;;;;;;4993659;28;20176;-65
2021/06/25 03:16:30;;;;;;;3.80;3.50;;;16.00;99.90;;;;;;4993311;28;20199;-65
2021/06/25 03:18:55;;;;;;;3.80;3.50;;;15.90;99.90;;;;;;4993290;28;20179;-64
2021/06/25 03:21:21;;;;;;;3.20;2.93;;;15.90;99.90;;;;;;4993462;28;20203;-64
2021/06/25 03:23:46;;;;;;;2.77;2.57;;;15.90;99.90;;;;;;4993268;28;20180;-66
2021/06/25 03:26:12;;;;;;;4.00;2.73;;;15.80;99.90;;;;;;4993504;28;20723;-65
2021/06/25 03:28:37;;;;;;;2.73;2.53;;;15.80;99.90;;;;;;4992829;28;20207;-63
2021/06/25 03:31:03;;;;;;;3.00;2.80;;;15.80;99.90;;;;;;4993326;28;20447;-65
2021/06/25 03:33:28;;;;;;;3.97;2.93;;;15.80;99.90;;;;;;4993278;28;20202;-65
2021/06/25 03:35:54;;;;;;;4.00;3.20;;;15.90;99.90;;;;;;4993155;28;20176;-63
2021/06/25 03:38:19;;;;;;;2.60;2.40;;;15.90;99.90;;;;;;4992885;28;20458;-65
2021/06/25 03:40:45;;;;;;;3.30;3.00;;;15.90;99.90;;;;;;4993005;28;20175;-65
2021/06/25 03:43:11;;;;;;;3.10;2.33;;;15.90;99.90;;;;;;4992956;28;20175;-65
2021/06/25 03:45:36;;;;;;;3.13;2.57;;;15.80;99.90;;;;;;4993016;28;20660;-65
2021/06/25 03:48:03;;;;;;;3.10;2.90;;;15.80;99.90;;;;;;5008544;28;20669;-63
2021/06/25 03:50:29;;;;;;;3.47;3.17;;;15.80;99.90;;;;;;4992668;28;20171;-62
2021/06/25 03:52:55;;;;;;;3.97;3.67;;;15.80;99.90;;;;;;4992831;28;20430;-62
2021/06/25 03:55:21;;;;;;;3.00;2.80;;;15.80;99.90;;;;;;4992917;28;20541;-62
2021/06/25 03:57:47;;;;;;;3.17;2.90;;;15.80;99.90;;;;;;4992765;28;20434;-62
2021/06/25 04:00:17;;;;;;;2.90;2.67;;;15.80;99.90;;;;;;4992573;28;20638;-63
2021/06/25 04:02:47;;;;;;;2.53;2.40;;;15.80;99.90;;;;;;4993012;28;20414;-63
2021/06/25 04:05:13;;;;;;;3.17;2.90;;;15.80;99.90;;;;;;4992764;28;20461;-65
2021/06/25 04:07:40;;;;;;;2.90;2.70;;;15.90;99.90;;;;;;4992411;28;20943;-63
2021/06/25 04:10:09;;;;;;;2.50;2.30;;;15.90;99.90;;;;;;4991144;28;20426;-63
2021/06/25 04:12:35;;;;;;;3.80;2.63;;;16.00;99.90;;;;;;4992684;28;20438;-62
2021/06/25 04:15:02;;;;;;;9.10;3.17;;;16.00;99.90;;;;;;4992637;28;20414;-62
2021/06/25 04:17:27;;;;;;;4.17;3.23;;;16.00;99.90;;;;;;4992598;28;20435;-63
2021/06/25 04:19:53;;;;;;;2.80;2.57;;;16.00;99.90;;;;;;4992348;28;21018;-62
2021/06/25 04:22:19;;;;;;;3.03;2.83;;;16.00;99.90;;;;;;4992450;28;20178;-61
2021/06/25 04:24:46;;;;;;;3.33;2.73;;;16.00;99.90;;;;;;4992579;28;20168;-63
2021/06/25 04:27:12;;;;;;;2.80;2.60;;;16.00;99.90;;;;;;4992947;28;20948;-62
2021/06/25 04:29:37;;;;;;;3.00;2.70;;;16.00;99.90;;;;;;4977078;28;20605;-63
2021/06/25 04:32:04;;;;;;;3.23;3.03;;;15.90;99.90;;;;;;4977183;28;20521;-62
2021/06/25 04:34:29;;;;;;;3.40;3.20;;;15.90;99.90;;;;;;4975839;28;20214;-62
2021/06/25 04:36:55;;;;;;;3.33;3.03;;;15.90;99.90;;;;;;4976798;28;21024;-63
2021/06/25 04:39:20;;;;;;;2.87;2.60;;;15.90;99.90;;;;;;4976717;28;20191;-63
2021/06/25 04:41:46;;;;;;;2.90;2.70;;;15.90;99.90;;;;;;4976881;28;20648;-63
2021/06/25 04:44:12;;;;;;;4.23;3.93;;;15.90;99.90;;;;;;4976930;28;20168;-63
2021/06/25 04:46:38;;;;;;;3.50;3.20;;;15.90;99.90;;;;;;4987844;28;20900;-61
2021/06/25 04:49:04;;;;;;;2.67;2.47;;;16.00;99.90;;;;;;5015546;28;20202;-60
2021/06/25 04:51:29;;;;;;;3.30;2.83;;;16.00;99.90;;;;;;5015658;28;20163;-62
2021/06/25 04:53:55;;;;;;;2.47;2.30;;;16.00;99.90;;;;;;5015817;28;20632;-62
2021/06/25 04:56:21;;;;;;;3.50;3.10;;;16.00;99.90;;;;;;5015684;28;20191;-61
2021/06/25 04:58:46;;;;;;;4.60;3.43;;;16.00;99.90;;;;;;5015375;28;20644;-62
2021/06/25 05:01:12;;;;;;;3.43;3.17;;;16.10;99.90;;;;;;5006947;28;20428;-61
2021/06/25 05:03:38;;;;;;;3.10;2.90;;;16.10;99.90;;;;;;4999929;28;20429;-63
2021/06/25 05:06:04;;;;;;;4.10;2.83;;;16.10;99.90;;;;;;4999529;28;20192;-61
2021/06/25 05:08:30;;;;;;;3.17;2.97;;;16.00;99.90;;;;;;4995547;28;20223;-63
2021/06/25 05:10:56;;;;;;;3.40;3.10;;;16.00;99.90;;;;;;4995880;28;20450;-63
2021/06/25 05:13:22;;;;;;;2.80;2.60;;;16.00;99.90;;;;;;5004828;28;20451;-63
2021/06/25 05:15:47;;;;;;;5.83;3.10;;;16.00;99.90;;;;;;5015261;28;20171;-63
2021/06/25 05:18:22;;;;;;;5.27;4.70;;;16.00;99.90;;;;;;5015297;28;20186;-63
2021/06/25 05:20:49;;;;;;;3.20;2.90;;;16.10;99.90;;;;;;5012116;28;20174;-63
2021/06/25 05:23:16;;;;;;;4.23;3.40;;;16.10;99.90;;;;;;5012256;28;20425;-62
2021/06/25 05:25:43;;;;;;;3.27;3.07;;;16.20;99.90;;;;;;5010713;28;20433;-63
2021/06/25 05:28:09;;;;;;;2.60;2.40;;;16.30;99.90;;;;;;4994712;28;20825;-62
2021/06/25 05:30:35;;;;;;;3.10;2.70;;;16.30;99.90;;;;;;5002296;28;20476;-63
2021/06/25 05:33:01;;;;;;;3.70;2.47;;;16.40;99.90;;;;;;5002876;28;20414;-63
2021/06/25 05:35:30;;;;;;;2.57;2.37;;;16.40;99.90;;;;;;4997243;28;20481;-61
2021/06/25 05:38:06;;;;;;;3.53;2.97;;;16.40;99.90;;;;;;5009605;28;20449;-63
2021/06/25 05:40:31;;;;;;;7.53;4.67;;;16.40;99.90;;;;;;5014749;28;20439;-61
2021/06/25 05:42:57;;;;;;;2.37;2.17;;;16.40;99.90;;;;;;5014798;28;20421;-62
2021/06/25 05:45:23;;;;;;;1.93;1.80;;;16.30;99.90;;;;;;5014743;28;20175;-60
2021/06/25 05:47:48;;;;;;;10.73;6.37;;;16.30;99.90;;;;;;5014459;28;20210;-65
2021/06/25 05:50:15;;;;;;;2.63;2.43;;;16.40;99.90;;;;;;5008092;28;20467;-66
2021/06/25 05:52:42;;;;;;;4.33;2.07;;;16.50;99.90;;;;;;4980661;28;20179;-66
2021/06/25 05:55:08;;;;;;;2.20;2.10;;;16.60;99.90;;;;;;4997606;28;20828;-66
2021/06/25 05:57:35;;;;;;;2.47;2.27;;;16.70;99.90;;;;;;5003754;28;20482;-66
2021/06/25 06:00:00;;;;;;;6.83;4.40;;;16.80;99.90;;;;;;5003929;28;20426;-68
2021/06/25 06:02:26;;;;;;;2.20;1.63;;;16.80;99.90;;;;;;5007011;28;20792;-66
2021/06/25 06:04:51;;;;;;;2.80;1.70;;;16.60;99.90;;;;;;5009438;28;20214;-66
2021/06/25 06:07:17;;;;;;;2.30;2.00;;;16.60;99.90;;;;;;4997924;28;20230;-66
2021/06/25 06:09:42;;;;;;;10.40;6.10;;;16.60;99.90;;;;;;4993577;28;20676;-66
2021/06/25 06:12:08;;;;;;;1.50;1.40;;;16.50;99.90;;;;;;4993723;28;20168;-66
2021/06/25 06:14:34;;;;;;;2.87;2.67;;;16.50;99.90;;;;;;4994629;28;20171;-66
2021/06/25 06:17:00;;;;;;;2.77;1.67;;;16.40;99.90;;;;;;4993125;28;20857;-67
2021/06/25 06:19:25;;;;;;;3.00;2.10;;;16.50;99.90;;;;;;4993573;28;20172;-66
2021/06/25 06:33:31;;;;;;;2.57;2.10;;;17.10;99.90;;;;;;4995800;28;20429;-68
2021/06/25 06:35:53;;;;;;;2.70;2.40;;;17.20;99.90;;;;;;4994736;28;20501;-68
2021/06/25 06:38:18;;;;;;;2.47;2.13;;;17.20;99.90;;;;;;4994180;28;20909;-68
2021/06/25 06:40:44;;;;;;;4.70;4.30;;;17.30;99.90;;;;;;5007685;28;20623;-68
2021/06/25 06:43:10;;;;;;;3.63;2.60;;;17.20;99.90;;;;;;5013654;28;20178;-68
2021/06/25 06:45:36;;;;;;;2.17;1.97;;;17.20;99.90;;;;;;5013790;28;20182;-68
2021/06/25 06:48:02;;;;;;;2.50;2.30;;;17.10;99.90;;;;;;5013191;28;20585;-67
2021/06/25 06:50:27;;;;;;;2.90;2.40;;;17.00;99.90;;;;;;5012816;28;20904;-67
2021/06/25 06:52:53;;;;;;;3.13;2.93;;;17.00;99.90;;;;;;5013537;28;20501;-68
2021/06/25 06:55:20;;;;;;;3.50;2.53;;;16.90;99.90;;;;;;4992042;28;20191;-68
2021/06/25 06:57:46;;;;;;;3.27;2.83;;;16.90;99.90;;;;;;4974845;28;20262;-67
2021/06/25 07:00:13;;;;;;;2.83;2.63;;;16.80;99.90;;;;;;5010088;28;20426;-68
2021/06/25 07:02:40;;;;;;;3.60;2.57;;;16.80;99.90;;;;;;5013205;28;20512;-68
2021/06/25 07:05:08;;;;;;;6.57;3.83;;;16.80;99.90;;;;;;5005384;28;20434;-68
2021/06/25 07:07:33;;;;;;;5.30;4.20;;;17.50;99.90;;;;;;4993538;28;20443;-68
2021/06/25 07:10:00;;;;;;;3.77;3.00;;;18.00;99.90;;;;;;4993255;28;20415;-68
2021/06/25 07:12:25;;;;;;;5.27;2.40;;;18.20;99.90;;;;;;4993711;28;20547;-68
2021/06/25 07:14:51;;;;;;;6.10;2.60;;;18.10;99.90;;;;;;4989957;28;20430;-68
2021/06/25 07:17:16;;;;;;;3.03;2.80;;;17.80;99.90;;;;;;4993339;28;20582;-68
2021/06/25 07:19:42;;;;;;;2.77;2.53;;;17.50;99.90;;;;;;4999636;28;20206;-68
2021/06/25 07:22:08;;;;;;;2.53;2.20;;;17.40;99.90;;;;;;4992710;28;20175;-68
2021/06/25 07:24:33;;;;;;;2.47;2.10;;;17.20;99.90;;;;;;4992360;28;20234;-68
2021/06/25 07:26:59;;;;;;;2.50;2.30;;;17.10;99.90;;;;;;4990198;28;20253;-68
2021/06/25 07:29:24;;;;;;;2.50;2.30;;;17.10;99.90;;;;;;4992920;28;20209;-67
2021/06/25 07:31:50;;;;;;;2.70;2.50;;;17.10;99.90;;;;;;4986912;28;20187;-68
2021/06/25 07:34:16;;;;;;;2.53;2.33;;;17.20;99.90;;;;;;4989299;28;20176;-68
2021/06/25 07:36:42;;;;;;;2.97;2.77;;;17.40;99.90;;;;;;5003486;28;20441;-68
2021/06/25 07:39:09;;;;;;;4.47;2.97;;;17.60;99.90;;;;;;4994641;28;20302;-67
2021/06/25 07:41:35;;;;;;;2.93;2.73;;;17.80;99.90;;;;;;5007895;28;20425;-69
2021/06/25 07:44:01;;;;;;;3.07;2.87;;;18.10;99.90;;;;;;5007663;28;20480;-68
2021/06/25 07:46:26;;;;;;;3.50;3.20;;;18.20;99.90;;;;;;4992158;28;20458;-67
2021/06/25 07:48:52;;;;;;;5.03;4.63;;;18.30;99.90;;;;;;4987643;28;20306;-67
2021/06/25 07:51:17;;;;;;;3.40;3.20;;;18.30;99.90;;;;;;5004340;28;20206;-68
2021/06/25 07:53:43;;;;;;;4.20;3.80;;;18.30;99.90;;;;;;5009260;28;20175;-68
2021/06/25 07:56:09;;;;;;;4.33;4.03;;;18.40;99.90;;;;;;4995047;28;20188;-68
2021/06/25 07:58:34;;;;;;;4.33;3.93;;;18.30;99.90;;;;;;5008848;28;20676;-67
2021/06/25 08:01:00;;;;;;;4.33;3.90;;;18.30;99.90;;;;;;5008700;28;20708;-68
2021/06/25 08:03:25;;;;;;;4.70;4.30;;;18.60;99.90;;;;;;4998114;28;20183;-68
2021/06/25 08:05:53;;;;;;;4.43;4.03;;;18.80;99.90;;;;;;4991658;28;20184;-67
2021/06/25 08:08:19;;;;;;;4.40;4.00;;;18.90;99.90;;;;;;4990622;28;20229;-68
2021/06/25 08:10:45;;;;;;;4.17;3.87;;;19.10;99.90;;;;;;5008843;28;20441;-68
2021/06/25 08:13:10;;;;;;;4.20;3.90;;;19.40;99.90;;;;;;5008921;28;20171;-68
2021/06/25 08:15:36;;;;;;;4.77;4.37;;;19.60;99.90;;;;;;5003042;28;20175;-67
2021/06/25 08:18:02;;;;;;;4.40;4.10;;;19.80;99.90;;;;;;5008548;28;20232;-68
2021/06/25 08:20:28;;;;;;;4.20;3.90;;;19.90;99.90;;;;;;5005380;28;20664;-67
2021/06/25 08:22:53;;;;;;;4.37;4.07;;;20.00;99.90;;;;;;4988955;28;20422;-67
2021/06/25 08:25:19;;;;;;;4.50;4.13;;;20.30;99.90;;;;;;4987898;28;20180;-68
2021/06/25 08:27:45;;;;;;;4.20;3.93;;;20.50;99.90;;;;;;4998543;28;20210;-67
2021/06/25 08:30:11;;;;;;;4.10;3.80;;;20.80;99.90;;;;;;4987910;28;20423;-67
2021/06/25 08:32:37;;;;;;;4.30;4.00;;;20.70;99.90;;;;;;4989527;28;20713;-68
2021/06/25 08:35:05;;;;;;;4.67;4.27;;;20.60;99.90;;;;;;4986723;28;20809;-68
2021/06/25 08:37:30;;;;;;;5.40;4.37;;;20.60;99.90;;;;;;5007235;28;20532;-68
2021/06/25 08:39:56;;;;;;;3.50;3.30;;;20.60;99.90;;;;;;5008015;28;20911;-68
2021/06/25 08:42:23;;;;;;;3.93;3.73;;;20.20;99.90;;;;;;4998144;28;20183;-67
2021/06/25 08:44:49;;;;;;;4.23;3.93;;;20.10;99.90;;;;;;4996763;28;20669;-67
2021/06/25 08:47:14;;;;;;;4.43;4.13;;;20.00;99.90;;;;;;4987773;28;20482;-67
2021/06/25 08:49:46;;;;;;;4.43;4.10;;;20.00;99.90;;;;;;4988489;28;20203;-67
2021/06/25 08:52:11;;;;;;;3.50;3.30;;;20.00;99.90;;;;;;4988657;28;20664;-68
2021/06/25 08:54:38;;;;;;;3.90;3.60;;;19.60;99.90;;;;;;4999116;28;20440;-68
2021/06/25 08:57:07;;;;;;;4.70;4.40;;;19.50;99.90;;;;;;4991226;28;20199;-67
2021/06/25 08:59:34;;;;;;;3.60;3.30;;;19.50;99.90;;;;;;5007966;28;20426;-67
2021/06/25 09:01:59;;;;;;;3.40;3.20;;;19.50;99.90;;;;;;5006918;28;20433;-67
2021/06/25 09:04:47;;;;;;;2.70;2.50;;;19.60;99.90;;;;;;4991514;28;20427;-68
2021/06/25 09:07:12;;;;;;;4.70;3.27;;;19.60;99.90;;;;;;4987494;28;20799;-68
2021/06/25 09:09:47;;;;;;;3.33;3.13;;;19.70;99.90;;;;;;4987857;28;20545;-67
2021/06/25 09:12:22;;;;;;;3.33;3.13;;;19.90;99.90;;;;;;4985755;28;20562;-68
2021/06/25 09:15:18;;;;;;;4.80;3.90;;;19.90;99.90;;;;;;4989582;28;20425;-67
2021/06/25 09:17:54;;;;;;;5.47;5.07;;;19.80;99.90;;;;;;4972297;28;20463;-67
2021/06/25 09:20:33;;;;;;;4.63;4.23;;;19.80;99.90;;;;;;4974641;28;20427;-67
2021/06/25 09:22:59;;;;;;;4.83;4.50;;;19.50;99.90;;;;;;4972781;28;20419;-67
2021/06/25 09:25:25;;;;;;;5.40;5.00;;;19.50;99.90;;;;;;4976997;28;20476;-67
2021/06/25 09:27:59;;;;;;;5.50;5.07;;;19.30;99.90;;;;;;5001466;28;20266;-67
2021/06/25 09:30:28;;;;;;;4.80;4.33;;;19.20;99.90;;;;;;4991928;28;20179;-67
2021/06/25 09:32:54;;;;;;;5.30;4.90;;;19.00;99.90;;;;;;4991835;28;20564;-68
2021/06/25 09:35:24;;;;;;;4.87;4.57;;;18.80;99.90;;;;;;4990541;28;20426;-68
2021/06/25 09:37:53;;;;;;;5.43;5.00;;;18.70;99.90;;;;;;4991412;28;20242;-68
2021/06/25 09:40:20;;;;;;;5.53;5.13;;;18.40;99.90;;;;;;4991859;28;20454;-67
2021/06/25 09:43:09;;;;;;;5.90;5.40;;;18.30;99.90;;;;;;4991851;28;20437;-68
2021/06/25 09:45:35;;;;;;;5.90;5.40;;;18.30;99.90;;;;;;4991492;28;20431;-68
2021/06/25 09:48:01;;;;;;;5.67;5.27;;;18.50;99.90;;;;;;4994858;28;20501;-69
2021/06/25 09:50:33;;;;;;;5.30;4.90;;;18.50;99.90;;;;;;4994805;28;20514;-69
2021/06/25 09:53:04;;;;;;;6.20;5.60;;;18.50;99.90;;;;;;4995531;28;20473;-68
2021/06/25 09:55:50;;;;;;;7.00;6.50;;;18.80;99.90;;;;;;4999331;28;20425;-69
2021/06/25 09:58:25;;;;;;;6.50;6.00;;;19.00;99.90;;;;;;5015026;28;20414;-68
2021/06/25 10:01:22;;;;;;;6.10;5.60;;;18.90;99.90;;;;;;5014851;28;20418;-68
2021/06/25 10:03:57;;;;;;;7.90;6.13;;;19.20;99.90;;;;;;5014597;28;20433;-67
2021/06/25 10:06:30;;;;;;;6.07;5.57;;;19.20;99.90;;;;;;5011474;28;20564;-67
2021/06/25 10:08:57;;;;;;;6.60;6.10;;;19.20;99.90;;;;;;5015222;28;20468;-67
2021/06/25 10:11:24;;;;;;;7.27;5.87;;;19.20;99.90;;;;;;5013708;28;20414;-66
2021/06/25 10:13:52;;;;;;;6.10;5.60;;;19.20;99.90;;;;;;4995917;28;20410;-66
2021/06/25 10:16:18;;;;;;;6.00;5.50;;;19.40;99.90;;;;;;5008091;28;20442;-64
2021/06/25 10:18:49;;;;;;;5.60;5.20;;;19.50;99.90;;;;;;4994499;28;20859;-67
2021/06/25 10:21:22;;;;;;;6.27;5.77;;;19.70;99.90;;;;;;4995907;28;20429;-66
2021/06/25 10:23:54;;;;;;;5.53;5.03;;;19.60;99.90;;;;;;4986026;28;20432;-67
2021/06/25 10:26:21;;;;;;;6.00;5.50;;;19.50;99.90;;;;;;5001996;28;20442;-66
2021/06/25 10:28:48;;;;;;;6.53;6.03;;;19.30;99.90;;;;;;5004109;28;20516;-67
2021/06/25 10:31:17;;;;;;;7.40;6.90;;;19.30;99.90;;;;;;5007314;28;20463;-67
2021/06/25 10:33:44;;;;;;;6.27;5.80;;;19.20;99.90;;;;;;4974991;28;20507;-66
2021/06/25 10:36:12;;;;;;;6.30;5.80;;;19.20;99.90;;;;;;4986553;28;20478;-67
2021/06/25 10:38:43;;;;;;;9.47;8.67;;;19.10;99.90;;;;;;5000347;28;20419;-67
2021/06/25 10:41:11;;;;;;;6.40;5.90;;;19.10;99.90;;;;;;4999341;28;20426;-65
2021/06/25 10:43:53;;;;;;;6.13;5.63;;;19.10;99.90;;;;;;4997464;28;20701;-67
2021/06/25 10:46:33;;;;;;;7.47;6.87;;;19.40;99.90;;;;;;5009895;28;20446;-65
2021/06/25 10:49:04;;;;;;;6.57;6.00;;;19.70;99.90;;;;;;5012269;28;20459;-66
2021/06/25 10:51:35;;;;;;;6.07;5.27;;;20.00;99.90;;;;;;4998740;28;21027;-65
2021/06/25 10:54:20;;;;;;;5.33;4.93;;;20.30;99.90;;;;;;4998771;28;20423;-67
2021/06/25 10:56:48;;;;;;;5.17;4.77;;;20.70;99.90;;;;;;4998161;28;20445;-66
2021/06/25 10:59:29;;;;;;;5.53;5.03;;;21.20;99.90;;;;;;4996343;28;20423;-66
2021/06/25 11:02:06;;;;;;;6.70;6.10;;;21.30;99.90;;;;;;4996844;28;20415;-66
2021/06/25 11:04:35;;;;;;;7.57;6.37;;;21.50;99.90;;;;;;4996221;28;20609;-60
2021/06/25 11:07:08;;;;;;;7.13;6.53;;;21.70;99.90;;;;;;5009259;28;20453;-66
2021/06/25 11:09:51;;;;;;;7.27;6.67;;;21.70;99.90;;;;;;5009013;28;20458;-66
2021/06/25 11:12:23;;;;;;;8.00;7.40;;;21.50;99.90;;;;;;4991989;28;20426;-67
2021/06/25 11:15:17;;;;;;;7.10;6.50;;;21.40;99.90;;;;;;4989065;28;20806;-67
2021/06/25 11:17:50;;;;;;;7.57;6.97;;;21.70;99.90;;;;;;5013249;28;20453;-69
2021/06/25 11:20:29;;;;;;;8.03;7.37;;;21.90;99.90;;;;;;4982383;28;20940;-68
2021/06/25 11:22:55;;;;;;;7.80;7.20;;;22.30;99.90;;;;;;4988333;28;20476;-68
2021/06/25 11:25:48;;;;;;;9.90;8.97;;;22.60;99.90;;;;;;4985148;28;20963;-69
2021/06/25 11:28:22;;;;;;;9.70;8.83;;;22.60;99.90;;;;;;4988565;28;20216;-67
2021/06/25 11:30:51;;;;;;;8.90;8.17;;;22.40;99.90;;;;;;4992263;28;20426;-68
2021/06/25 11:33:40;;;;;;;10.30;9.43;;;22.30;99.90;;;;;;4993218;28;20908;-68
2021/06/25 11:36:32;;;;;;;9.20;8.50;;;22.30;99.90;;;;;;4996111;28;20785;-68
2021/06/25 11:39:12;;;;;;;9.90;9.10;;;22.30;99.90;;;;;;4990196;28;20932;-68
2021/06/25 11:41:59;;;;;;;9.03;8.23;;;22.50;99.90;;;;;;4992867;28;20911;-68
2021/06/25 11:44:27;;;;;;;11.90;10.80;;;22.10;99.90;;;;;;4993250;28;20433;-68
2021/06/25 11:47:12;;;;;;;10.07;9.27;;;21.80;99.90;;;;;;4997469;28;20873;-67
2021/06/25 11:49:45;;;;;;;8.87;8.07;;;21.90;99.90;;;;;;4992646;28;20470;-68
2021/06/25 11:52:16;;;;;;;9.50;8.70;;;22.20;99.90;;;;;;5004776;28;20425;-67
2021/06/25 11:54:44;;;;;;;9.43;8.40;;;22.20;99.90;;;;;;5010648;28;20441;-67
2021/06/25 11:57:21;;;;;;;8.77;8.07;;;22.70;99.90;;;;;;4991541;28;20439;-68
2021/06/25 12:00:11;;;;;;;7.40;6.73;;;23.30;99.90;;;;;;4992890;28;20422;-68
2021/06/25 12:02:52;;;;;;;9.30;8.43;;;24.50;99.90;;;;;;4992614;28;20426;-68
2021/06/25 12:05:19;;;;;;;6.67;6.17;;;25.10;99.90;;;;;;4991737;28;20465;-68
2021/06/25 12:07:45;;;;;;;8.13;7.40;;;25.40;99.90;;;;;;5002949;28;20532;-69
2021/06/25 12:10:18;;;;;;;6.17;5.67;;;25.40;99.90;;;;;;5012091;28;20500;-68
2021/06/25 12:12:44;;;;;;;6.93;5.90;;;24.90;99.90;;;;;;4986491;28;20561;-68
2021/06/25 12:15:12;;;;;;;5.60;5.20;;;24.60;99.90;;;;;;4988241;28;20868;-69
2021/06/25 12:17:44;;;;;;;6.93;6.23;;;25.20;99.90;;;;;;4993295;28;20213;-69
2021/06/25 12:20:16;;;;;;;6.90;6.40;;;25.60;99.90;;;;;;4988939;28;20504;-69
2021/06/25 12:22:51;;;;;;;5.60;5.20;;;26.00;99.90;;;;;;4989433;28;20489;-68
2021/06/25 12:25:47;;;;;;;5.73;5.23;;;26.20;99.90;;;;;;4986848;28;21278;-68
2021/06/25 12:28:15;;;;;;;6.20;5.60;;;26.30;99.90;;;;;;4984447;28;20463;-68
2021/06/25 12:30:44;;;;;;;6.53;5.73;;;26.00;99.90;;;;;;4988829;28;20423;-68
2021/06/25 12:33:10;;;;;;;5.67;5.27;;;25.80;99.90;;;;;;4998563;28;20441;-68
2021/06/25 12:35:43;;;;;;;5.60;5.20;;;24.80;99.90;;;;;;4999083;28;20843;-67
2021/06/25 12:38:11;;;;;;;5.50;5.10;;;24.00;99.90;;;;;;4988383;28;20426;-69
2021/06/25 12:40:45;;;;;;;5.07;4.70;;;23.30;99.90;;;;;;4992263;28;20504;-69
2021/06/25 12:43:16;;;;;;;5.47;5.07;;;23.10;99.90;;;;;;5007966;28;20588;-68
2021/06/25 12:45:52;;;;;;;5.30;4.90;;;22.70;99.90;;;;;;5000633;28;20473;-68
2021/06/25 12:48:29;;;;;;;5.83;5.43;;;22.70;99.90;;;;;;4988851;28;20532;-67
2021/06/25 12:51:03;;;;;;;6.50;6.03;;;22.70;99.90;;;;;;4993103;28;20426;-69
2021/06/25 12:53:35;;;;;;;5.70;5.20;;;22.70;99.90;;;;;;4992771;28;20414;-68
2021/06/25 12:56:12;;;;;;;6.23;5.83;;;22.90;99.90;;;;;;4989350;28;21014;-67
2021/06/25 12:58:42;;;;;;;6.40;5.90;;;24.00;99.90;;;;;;4992646;28;20883;-67
2021/06/25 13:01:08;;;;;;;6.17;5.67;;;24.90;99.90;;;;;;4992700;28;20481;-68
2021/06/25 13:03:35;;;;;;;5.70;5.30;;;25.10;99.90;;;;;;5008740;28;20862;-68